FIN165 EFHK-EPWA
Flight info
| Callsign | FIN165 |
|---|---|
| Flight time | 1h 30m |
| Altitude | 36000 |
| Route | KOIVU4N KOIVU DCT LARTI DCT NAVOT DCT LUTAL DCT BERIL/N0447F350 DCT NAPOT/N0448F360 DCT SUWGI DCT NORNO DCT BULEP/N0442F320 DCT XESNA DCT GERVI DCT NEPOX NEPOX6U |
| Aircraft | A321/M-SDE3FGHIRWY/LB1 |
Departure
| Time | 2026-05-05 10:04 |
|---|---|
| Airport | Helsinki Vantaa Airport (EFHK) |
Arrival
| Time | 2026-05-05 11:34 |
|---|---|
| Airport | Warsaw Chopin Airport (EPWA) |
| Time | Latitude | Longitude | Altitude | Speed | Heading |
|---|---|---|---|---|---|
| 2026-05-05 09:27 | 60.31946 | 24.96678 | 167 ft | 0 kts | 137° |
| 2026-05-05 09:28 | 60.31945 | 24.96680 | 167 ft | 0 kts | 137° |
| 2026-05-05 09:37 | 60.31945 | 24.96679 | 167 ft | 0 kts | 137° |
| 2026-05-05 09:41 | 60.31946 | 24.96679 | 167 ft | 0 kts | 137° |
| 2026-05-05 09:52 | 60.31947 | 24.96677 | 167 ft | 2 kts | 137° |
| 2026-05-05 09:52 | 60.31963 | 24.96639 | 167 ft | 4 kts | 112° |
| 2026-05-05 09:52 | 60.31967 | 24.96589 | 167 ft | 4 kts | 77° |
| 2026-05-05 09:53 | 60.31958 | 24.96551 | 167 ft | 0 kts | 47° |
| 2026-05-05 09:56 | 60.31961 | 24.96558 | 167 ft | 3 kts | 47° |
| 2026-05-05 09:56 | 60.31997 | 24.96635 | 167 ft | 11 kts | 47° |
| 2026-05-05 09:56 | 60.32033 | 24.96713 | 167 ft | 5 kts | 47° |
| 2026-05-05 09:56 | 60.32037 | 24.96723 | 167 ft | 0 kts | 47° |
| 2026-05-05 09:57 | 60.32038 | 24.96724 | 167 ft | 1 kts | 47° |
| 2026-05-05 09:58 | 60.32070 | 24.96795 | 166 ft | 11 kts | 47° |
| 2026-05-05 09:58 | 60.32120 | 24.96870 | 166 ft | 9 kts | 1° |
| 2026-05-05 09:58 | 60.32201 | 24.96783 | 166 ft | 19 kts | 328° |
| 2026-05-05 09:58 | 60.32320 | 24.96645 | 169 ft | 19 kts | 330° |
| 2026-05-05 09:59 | 60.32418 | 24.96531 | 175 ft | 15 kts | 329° |
| 2026-05-05 09:59 | 60.32517 | 24.96414 | 174 ft | 20 kts | 330° |
| 2026-05-05 09:59 | 60.32671 | 24.96234 | 172 ft | 28 kts | 329° |
| 2026-05-05 09:59 | 60.32814 | 24.96068 | 174 ft | 23 kts | 330° |
| 2026-05-05 10:00 | 60.32947 | 24.95914 | 177 ft | 21 kts | 330° |
| 2026-05-05 10:00 | 60.33061 | 24.95779 | 181 ft | 18 kts | 326° |
| 2026-05-05 10:00 | 60.33157 | 24.95610 | 181 ft | 18 kts | 317° |
| 2026-05-05 10:00 | 60.33208 | 24.95430 | 182 ft | 15 kts | 263° |
| 2026-05-05 10:01 | 60.33144 | 24.95250 | 178 ft | 17 kts | 229° |
| 2026-05-05 10:01 | 60.33106 | 24.95027 | 178 ft | 17 kts | 271° |
| 2026-05-05 10:01 | 60.33111 | 24.94808 | 181 ft | 14 kts | 273° |
| 2026-05-05 10:01 | 60.33116 | 24.94643 | 191 ft | 10 kts | 273° |
| 2026-05-05 10:02 | 60.33120 | 24.94496 | 190 ft | 11 kts | 273° |
| 2026-05-05 10:02 | 60.33110 | 24.94396 | 192 ft | 6 kts | 246° |
| 2026-05-05 10:02 | 60.33092 | 24.94342 | 188 ft | 1 kts | 229° |
| 2026-05-05 10:02 | 60.33085 | 24.94327 | 188 ft | 0 kts | 226° |
| 2026-05-05 10:03 | 60.33057 | 24.94268 | 196 ft | 30 kts | 227° |
| 2026-05-05 10:03 | 60.32742 | 24.93572 | 181 ft | 102 kts | 227° |
| 2026-05-05 10:03 | 60.32129 | 24.92216 | 169 ft | 157 kts | 233° |
| 2026-05-05 10:03 | 60.31379 | 24.90548 | 703 ft | 160 kts | 232° |
| 2026-05-05 10:04 | 60.30630 | 24.88898 | 1458 ft | 161 kts | 233° |
| 2026-05-05 10:04 | 60.30052 | 24.86913 | 1836 ft | 174 kts | 254° |
| 2026-05-05 10:04 | 60.29778 | 24.84441 | 2154 ft | 191 kts | 259° |
| 2026-05-05 10:04 | 60.29098 | 24.81951 | 2388 ft | 226 kts | 224° |
| 2026-05-05 10:05 | 60.27584 | 24.80533 | 2853 ft | 253 kts | 198° |
| 2026-05-05 10:05 | 60.25820 | 24.79884 | 3656 ft | 261 kts | 193° |
| 2026-05-05 10:05 | 60.24002 | 24.79477 | 4529 ft | 264 kts | 191° |
| 2026-05-05 10:05 | 60.22174 | 24.79093 | 5430 ft | 264 kts | 192° |
| 2026-05-05 10:06 | 60.20379 | 24.78664 | 6367 ft | 260 kts | 195° |
| 2026-05-05 10:06 | 60.18609 | 24.78175 | 7351 ft | 254 kts | 197° |
| 2026-05-05 10:06 | 60.16866 | 24.77636 | 8238 ft | 254 kts | 198° |
| 2026-05-05 10:06 | 60.15116 | 24.77054 | 9050 ft | 256 kts | 199° |
| 2026-05-05 10:07 | 60.13353 | 24.76447 | 9837 ft | 257 kts | 199° |
| 2026-05-05 10:07 | 60.11527 | 24.75796 | 10148 ft | 277 kts | 199° |
| 2026-05-05 10:07 | 60.09547 | 24.75072 | 10295 ft | 301 kts | 199° |
| 2026-05-05 10:07 | 60.07421 | 24.74308 | 10608 ft | 317 kts | 198° |
| 2026-05-05 10:08 | 60.05226 | 24.73554 | 11212 ft | 322 kts | 198° |
| 2026-05-05 10:08 | 60.03001 | 24.72808 | 11877 ft | 325 kts | 198° |
| 2026-05-05 10:08 | 60.00756 | 24.72060 | 12558 ft | 329 kts | 198° |
| 2026-05-05 10:08 | 59.98491 | 24.71301 | 13236 ft | 332 kts | 198° |
| 2026-05-05 10:09 | 59.96202 | 24.70529 | 13872 ft | 335 kts | 198° |
| 2026-05-05 10:09 | 59.93893 | 24.69744 | 14477 ft | 338 kts | 198° |
| 2026-05-05 10:09 | 59.91592 | 24.68953 | 15072 ft | 341 kts | 198° |
| 2026-05-05 10:09 | 59.89243 | 24.68145 | 15639 ft | 344 kts | 198° |
| 2026-05-05 10:10 | 59.86873 | 24.67336 | 16249 ft | 347 kts | 198° |
| 2026-05-05 10:10 | 59.84476 | 24.66520 | 16864 ft | 350 kts | 198° |
| 2026-05-05 10:10 | 59.82088 | 24.65574 | 17467 ft | 351 kts | 200° |
| 2026-05-05 10:10 | 59.79700 | 24.64475 | 18070 ft | 353 kts | 201° |
| 2026-05-05 10:11 | 59.77312 | 24.63303 | 18591 ft | 355 kts | 201° |
| 2026-05-05 10:11 | 59.74912 | 24.62103 | 19133 ft | 357 kts | 202° |
| 2026-05-05 10:11 | 59.72491 | 24.60903 | 19692 ft | 359 kts | 201° |
| 2026-05-05 10:11 | 59.70053 | 24.59719 | 20227 ft | 362 kts | 201° |
| 2026-05-05 10:12 | 59.67594 | 24.58552 | 20770 ft | 364 kts | 201° |
| 2026-05-05 10:12 | 59.65123 | 24.57371 | 21282 ft | 366 kts | 202° |
| 2026-05-05 10:12 | 59.62651 | 24.56119 | 21783 ft | 368 kts | 202° |
| 2026-05-05 10:12 | 59.60168 | 24.54818 | 22206 ft | 371 kts | 202° |
| 2026-05-05 10:13 | 59.57666 | 24.53489 | 22638 ft | 374 kts | 202° |
| 2026-05-05 10:13 | 59.55145 | 24.52153 | 23094 ft | 377 kts | 202° |
| 2026-05-05 10:13 | 59.52604 | 24.50816 | 23518 ft | 379 kts | 202° |
| 2026-05-05 10:13 | 59.50045 | 24.49483 | 23898 ft | 382 kts | 202° |
| 2026-05-05 10:14 | 59.47467 | 24.48149 | 24279 ft | 384 kts | 202° |
| 2026-05-05 10:14 | 59.44878 | 24.46811 | 24656 ft | 386 kts | 202° |
| 2026-05-05 10:14 | 59.42301 | 24.45481 | 25025 ft | 388 kts | 202° |
| 2026-05-05 10:14 | 59.39682 | 24.44133 | 25399 ft | 390 kts | 202° |
| 2026-05-05 10:15 | 59.37043 | 24.42781 | 25776 ft | 393 kts | 202° |
| 2026-05-05 10:15 | 59.34391 | 24.41432 | 26141 ft | 395 kts | 201° |
| 2026-05-05 10:15 | 59.31695 | 24.40230 | 26501 ft | 400 kts | 199° |
| 2026-05-05 10:15 | 59.28950 | 24.39198 | 26850 ft | 403 kts | 198° |
| 2026-05-05 10:16 | 59.26170 | 24.38260 | 27201 ft | 406 kts | 197° |
| 2026-05-05 10:16 | 59.23371 | 24.37352 | 27555 ft | 409 kts | 197° |
| 2026-05-05 10:16 | 59.20711 | 24.36483 | 27869 ft | 410 kts | 197° |
| 2026-05-05 10:16 | 59.18313 | 24.35680 | 28155 ft | 412 kts | 198° |
| 2026-05-05 10:17 | 59.15483 | 24.34700 | 28493 ft | 414 kts | 198° |
| 2026-05-05 10:17 | 59.12676 | 24.33701 | 28822 ft | 416 kts | 198° |
| 2026-05-05 10:17 | 59.09823 | 24.32668 | 29155 ft | 418 kts | 198° |
| 2026-05-05 10:17 | 59.06951 | 24.31621 | 29439 ft | 420 kts | 197° |
| 2026-05-05 10:18 | 59.04076 | 24.30579 | 29766 ft | 421 kts | 197° |
| 2026-05-05 10:18 | 59.01190 | 24.29547 | 30059 ft | 423 kts | 197° |
| 2026-05-05 10:18 | 58.98291 | 24.28523 | 30390 ft | 423 kts | 196° |
| 2026-05-05 10:18 | 58.95394 | 24.27509 | 30757 ft | 423 kts | 196° |
| 2026-05-05 10:19 | 58.92499 | 24.26502 | 31139 ft | 422 kts | 196° |
| 2026-05-05 10:19 | 58.89610 | 24.25498 | 31519 ft | 421 kts | 196° |
| 2026-05-05 10:19 | 58.86725 | 24.24490 | 31732 ft | 421 kts | 197° |
| 2026-05-05 10:19 | 58.83870 | 24.23491 | 31773 ft | 414 kts | 197° |
| 2026-05-05 10:20 | 58.78279 | 24.21533 | 31786 ft | 409 kts | 197° |
| 2026-05-05 10:20 | 58.72668 | 24.19574 | 31787 ft | 411 kts | 196° |
| 2026-05-05 10:21 | 58.67987 | 24.17945 | 31794 ft | 411 kts | 196° |
| 2026-05-05 10:21 | 58.62352 | 24.15994 | 31794 ft | 412 kts | 196° |
| 2026-05-05 10:22 | 58.56710 | 24.14055 | 31810 ft | 412 kts | 196° |
| 2026-05-05 10:22 | 58.51058 | 24.12104 | 31814 ft | 412 kts | 196° |
| 2026-05-05 10:23 | 58.45406 | 24.10160 | 31790 ft | 413 kts | 196° |
| 2026-05-05 10:23 | 58.39784 | 24.08236 | 31800 ft | 414 kts | 196° |
| 2026-05-05 10:24 | 58.34113 | 24.06307 | 31826 ft | 415 kts | 196° |
| 2026-05-05 10:24 | 58.28417 | 24.04377 | 31852 ft | 415 kts | 195° |
| 2026-05-05 10:25 | 58.22728 | 24.02452 | 31868 ft | 415 kts | 196° |
| 2026-05-05 10:25 | 58.17043 | 24.00531 | 31849 ft | 415 kts | 195° |
| 2026-05-05 10:26 | 58.11344 | 23.98619 | 31855 ft | 415 kts | 195° |
| 2026-05-05 10:26 | 58.05686 | 23.96724 | 31855 ft | 416 kts | 195° |
| 2026-05-05 10:27 | 57.99994 | 23.94817 | 31831 ft | 416 kts | 195° |
| 2026-05-05 10:27 | 57.94270 | 23.92906 | 31831 ft | 417 kts | 195° |
| 2026-05-05 10:28 | 57.88551 | 23.91010 | 31831 ft | 417 kts | 196° |
| 2026-05-05 10:28 | 57.82833 | 23.89124 | 31848 ft | 417 kts | 196° |
| 2026-05-05 10:29 | 57.77146 | 23.87245 | 31854 ft | 417 kts | 196° |
| 2026-05-05 10:29 | 57.71428 | 23.85367 | 31860 ft | 417 kts | 196° |
| 2026-05-05 10:30 | 57.65710 | 23.83497 | 31859 ft | 417 kts | 196° |
| 2026-05-05 10:30 | 57.59992 | 23.81628 | 31849 ft | 417 kts | 198° |
| 2026-05-05 10:31 | 57.54284 | 23.79764 | 31867 ft | 415 kts | 198° |
| 2026-05-05 10:31 | 57.48593 | 23.77940 | 31866 ft | 414 kts | 198° |
| 2026-05-05 10:32 | 57.42915 | 23.76103 | 31857 ft | 414 kts | 198° |
| 2026-05-05 10:32 | 57.37272 | 23.74270 | 31857 ft | 413 kts | 198° |
| 2026-05-05 10:33 | 57.31604 | 23.72437 | 31827 ft | 413 kts | 198° |
| 2026-05-05 10:33 | 57.25940 | 23.70631 | 31841 ft | 413 kts | 198° |
| 2026-05-05 10:34 | 57.20285 | 23.68828 | 31843 ft | 412 kts | 198° |
| 2026-05-05 10:34 | 57.14634 | 23.67019 | 31845 ft | 412 kts | 198° |
| 2026-05-05 10:35 | 57.08981 | 23.65222 | 31847 ft | 412 kts | 198° |
| 2026-05-05 10:35 | 57.03336 | 23.63442 | 31821 ft | 412 kts | 198° |
| 2026-05-05 10:36 | 56.97689 | 23.61657 | 31839 ft | 411 kts | 198° |
| 2026-05-05 10:36 | 56.92048 | 23.59878 | 31842 ft | 411 kts | 198° |
| 2026-05-05 10:37 | 56.86446 | 23.58113 | 31846 ft | 411 kts | 198° |
| 2026-05-05 10:37 | 56.80805 | 23.56350 | 31843 ft | 411 kts | 198° |
| 2026-05-05 10:38 | 56.75160 | 23.54603 | 31834 ft | 411 kts | 197° |
| 2026-05-05 10:38 | 56.69538 | 23.52867 | 31854 ft | 409 kts | 198° |
| 2026-05-05 10:39 | 56.63909 | 23.51125 | 31858 ft | 409 kts | 198° |
| 2026-05-05 10:39 | 56.58318 | 23.49396 | 31860 ft | 409 kts | 198° |
| 2026-05-05 10:40 | 56.52713 | 23.47662 | 31867 ft | 408 kts | 198° |
| 2026-05-05 10:40 | 56.47139 | 23.45943 | 31867 ft | 408 kts | 198° |
| 2026-05-05 10:41 | 56.41542 | 23.44226 | 31868 ft | 408 kts | 197° |
| 2026-05-05 10:41 | 56.35928 | 23.42535 | 31866 ft | 409 kts | 197° |
| 2026-05-05 10:42 | 56.27425 | 23.40807 | 31880 ft | 412 kts | 193° |
| 2026-05-05 10:43 | 56.21703 | 23.39882 | 31862 ft | 412 kts | 193° |
| 2026-05-05 10:43 | 56.15980 | 23.38867 | 31877 ft | 412 kts | 193° |
| 2026-05-05 10:44 | 56.10312 | 23.37804 | 31869 ft | 412 kts | 194° |
| 2026-05-05 10:44 | 56.04590 | 23.36722 | 31867 ft | 413 kts | 194° |
| 2026-05-05 10:45 | 55.98884 | 23.35661 | 31872 ft | 414 kts | 194° |
| 2026-05-05 10:45 | 55.93143 | 23.34609 | 31878 ft | 415 kts | 193° |
| 2026-05-05 10:46 | 55.87382 | 23.33563 | 31889 ft | 416 kts | 193° |
| 2026-05-05 10:46 | 55.81657 | 23.32522 | 31895 ft | 416 kts | 193° |
| 2026-05-05 10:47 | 55.75893 | 23.31460 | 31898 ft | 416 kts | 193° |
| 2026-05-05 10:47 | 55.70125 | 23.30409 | 31898 ft | 416 kts | 193° |
| 2026-05-05 10:48 | 55.64395 | 23.29372 | 31867 ft | 416 kts | 193° |
| 2026-05-05 10:48 | 55.58620 | 23.28314 | 31875 ft | 416 kts | 193° |
| 2026-05-05 10:49 | 55.52876 | 23.27271 | 31887 ft | 416 kts | 193° |
| 2026-05-05 10:49 | 55.47106 | 23.26238 | 31892 ft | 416 kts | 193° |
| 2026-05-05 10:50 | 55.41335 | 23.25183 | 31869 ft | 415 kts | 194° |
| 2026-05-05 10:50 | 55.35672 | 23.23736 | 31877 ft | 413 kts | 196° |
| 2026-05-05 10:51 | 55.29990 | 23.22084 | 31889 ft | 413 kts | 196° |
| 2026-05-05 10:51 | 55.24299 | 23.20489 | 31870 ft | 414 kts | 195° |
| 2026-05-05 10:52 | 55.18627 | 23.18965 | 31878 ft | 415 kts | 195° |
| 2026-05-05 10:52 | 55.12898 | 23.17451 | 31877 ft | 416 kts | 194° |
| 2026-05-05 10:53 | 55.07152 | 23.15937 | 31900 ft | 417 kts | 194° |
| 2026-05-05 10:53 | 55.01400 | 23.14423 | 31908 ft | 417 kts | 194° |
| 2026-05-05 10:54 | 54.95690 | 23.12921 | 31909 ft | 417 kts | 195° |
| 2026-05-05 10:54 | 54.89945 | 23.11394 | 31911 ft | 417 kts | 195° |
| 2026-05-05 10:55 | 54.84201 | 23.09867 | 31893 ft | 417 kts | 194° |
| 2026-05-05 10:55 | 54.78478 | 23.08375 | 31905 ft | 417 kts | 194° |
| 2026-05-05 10:56 | 54.72716 | 23.06889 | 31913 ft | 417 kts | 194° |
| 2026-05-05 10:56 | 54.66968 | 23.05390 | 31912 ft | 417 kts | 194° |
| 2026-05-05 10:57 | 54.61253 | 23.03908 | 31892 ft | 417 kts | 194° |
| 2026-05-05 10:57 | 54.55504 | 23.02422 | 31895 ft | 417 kts | 194° |
| 2026-05-05 10:58 | 54.49745 | 23.00934 | 31897 ft | 417 kts | 194° |
| 2026-05-05 10:58 | 54.44029 | 22.99463 | 31902 ft | 417 kts | 194° |
| 2026-05-05 10:59 | 54.38301 | 22.97996 | 31903 ft | 417 kts | 194° |
| 2026-05-05 10:59 | 54.32557 | 22.96529 | 31864 ft | 418 kts | 193° |
| 2026-05-05 11:00 | 54.26786 | 22.95047 | 31871 ft | 419 kts | 193° |
| 2026-05-05 11:00 | 54.21007 | 22.93571 | 31877 ft | 420 kts | 193° |
| 2026-05-05 11:01 | 54.15246 | 22.92102 | 31883 ft | 421 kts | 193° |
| 2026-05-05 11:01 | 54.09446 | 22.90644 | 31862 ft | 421 kts | 193° |
| 2026-05-05 11:02 | 54.03666 | 22.88996 | 31872 ft | 419 kts | 197° |
| 2026-05-05 11:02 | 54.00943 | 22.87406 | 31879 ft | 411 kts | 210° |
| 2026-05-05 11:02 | 53.98408 | 22.85301 | 31894 ft | 405 kts | 210° |
| 2026-05-05 11:02 | 53.95918 | 22.83222 | 31899 ft | 390 kts | 210° |
| 2026-05-05 11:03 | 53.93539 | 22.81224 | 31897 ft | 374 kts | 211° |
| 2026-05-05 11:03 | 53.91247 | 22.79288 | 31899 ft | 360 kts | 211° |
| 2026-05-05 11:03 | 53.89047 | 22.77424 | 31900 ft | 348 kts | 211° |
| 2026-05-05 11:04 | 53.84756 | 22.73780 | 31901 ft | 345 kts | 211° |
| 2026-05-05 11:04 | 53.80458 | 22.70146 | 31901 ft | 344 kts | 211° |
| 2026-05-05 11:05 | 53.76194 | 22.66568 | 31898 ft | 344 kts | 211° |
| 2026-05-05 11:05 | 53.71899 | 22.62979 | 31898 ft | 344 kts | 211° |
| 2026-05-05 11:06 | 53.67603 | 22.59394 | 31897 ft | 344 kts | 211° |
| 2026-05-05 11:06 | 53.63324 | 22.55824 | 31881 ft | 344 kts | 211° |
| 2026-05-05 11:07 | 53.59012 | 22.52241 | 31900 ft | 345 kts | 210° |
| 2026-05-05 11:07 | 53.54689 | 22.48658 | 31901 ft | 346 kts | 210° |
| 2026-05-05 11:08 | 53.50399 | 22.45107 | 31894 ft | 346 kts | 210° |
| 2026-05-05 11:08 | 53.46080 | 22.41553 | 31892 ft | 346 kts | 210° |
| 2026-05-05 11:09 | 53.41757 | 22.37987 | 31892 ft | 345 kts | 210° |
| 2026-05-05 11:09 | 53.37434 | 22.34432 | 31892 ft | 347 kts | 210° |
| 2026-05-05 11:10 | 53.33083 | 22.30873 | 31586 ft | 343 kts | 210° |
| 2026-05-05 11:10 | 53.30969 | 22.29145 | 31328 ft | 342 kts | 210° |
| 2026-05-05 11:10 | 53.28835 | 22.27405 | 30948 ft | 340 kts | 210° |
| 2026-05-05 11:10 | 53.26712 | 22.25681 | 30576 ft | 338 kts | 210° |
| 2026-05-05 11:11 | 53.24600 | 22.23965 | 30227 ft | 335 kts | 210° |
| 2026-05-05 11:11 | 53.22506 | 22.22258 | 29845 ft | 333 kts | 210° |
| 2026-05-05 11:11 | 53.20428 | 22.20567 | 29420 ft | 331 kts | 210° |
| 2026-05-05 11:11 | 53.18366 | 22.18892 | 29019 ft | 328 kts | 210° |
| 2026-05-05 11:12 | 53.16344 | 22.17247 | 28573 ft | 326 kts | 210° |
| 2026-05-05 11:12 | 53.14307 | 22.15589 | 28153 ft | 324 kts | 210° |
| 2026-05-05 11:12 | 53.12280 | 22.13943 | 27752 ft | 322 kts | 210° |
| 2026-05-05 11:12 | 53.10271 | 22.12315 | 27378 ft | 319 kts | 210° |
| 2026-05-05 11:13 | 53.08283 | 22.10709 | 26993 ft | 317 kts | 209° |
| 2026-05-05 11:13 | 53.06307 | 22.09121 | 26610 ft | 314 kts | 209° |
| 2026-05-05 11:13 | 53.04349 | 22.07546 | 26247 ft | 311 kts | 209° |
| 2026-05-05 11:13 | 53.02404 | 22.05983 | 25879 ft | 309 kts | 209° |
| 2026-05-05 11:14 | 53.01123 | 22.04952 | 25636 ft | 308 kts | 209° |
| 2026-05-05 11:14 | 52.99206 | 22.03410 | 25287 ft | 305 kts | 209° |
| 2026-05-05 11:14 | 52.97304 | 22.01884 | 24939 ft | 303 kts | 209° |
| 2026-05-05 11:14 | 52.95413 | 22.00365 | 24588 ft | 301 kts | 209° |
| 2026-05-05 11:15 | 52.93493 | 21.98820 | 23793 ft | 314 kts | 209° |
| 2026-05-05 11:15 | 52.91484 | 21.97198 | 22991 ft | 325 kts | 208° |
| 2026-05-05 11:15 | 52.89440 | 21.95552 | 22438 ft | 327 kts | 208° |
| 2026-05-05 11:15 | 52.87399 | 21.93913 | 21984 ft | 325 kts | 208° |
| 2026-05-05 11:16 | 52.85369 | 21.92291 | 21558 ft | 323 kts | 208° |
| 2026-05-05 11:16 | 52.83350 | 21.90683 | 21129 ft | 321 kts | 208° |
| 2026-05-05 11:16 | 52.81341 | 21.89086 | 20711 ft | 319 kts | 208° |
| 2026-05-05 11:16 | 52.79349 | 21.87503 | 20300 ft | 317 kts | 208° |
| 2026-05-05 11:17 | 52.77393 | 21.85950 | 19908 ft | 315 kts | 208° |
| 2026-05-05 11:17 | 52.75428 | 21.84389 | 19515 ft | 313 kts | 208° |
| 2026-05-05 11:17 | 52.73473 | 21.82835 | 19115 ft | 311 kts | 208° |
| 2026-05-05 11:17 | 52.71527 | 21.81292 | 18697 ft | 309 kts | 208° |
| 2026-05-05 11:18 | 52.69589 | 21.79759 | 18326 ft | 308 kts | 208° |
| 2026-05-05 11:18 | 52.67663 | 21.78235 | 17917 ft | 306 kts | 208° |
| 2026-05-05 11:18 | 52.65745 | 21.76720 | 17511 ft | 304 kts | 208° |
| 2026-05-05 11:18 | 52.63845 | 21.75218 | 17105 ft | 302 kts | 208° |
| 2026-05-05 11:19 | 52.61958 | 21.73729 | 16710 ft | 299 kts | 208° |
| 2026-05-05 11:19 | 52.60088 | 21.72257 | 16329 ft | 297 kts | 208° |
| 2026-05-05 11:19 | 52.58231 | 21.70794 | 15951 ft | 295 kts | 208° |
| 2026-05-05 11:19 | 52.56388 | 21.69342 | 15573 ft | 293 kts | 208° |
| 2026-05-05 11:20 | 52.54558 | 21.67904 | 15209 ft | 291 kts | 208° |
| 2026-05-05 11:20 | 52.52741 | 21.66476 | 14850 ft | 289 kts | 208° |
| 2026-05-05 11:20 | 52.50937 | 21.65061 | 14500 ft | 286 kts | 208° |
| 2026-05-05 11:20 | 52.49144 | 21.63660 | 14140 ft | 284 kts | 208° |
| 2026-05-05 11:21 | 52.47361 | 21.62267 | 13772 ft | 283 kts | 208° |
| 2026-05-05 11:21 | 52.45589 | 21.60882 | 13413 ft | 281 kts | 208° |
| 2026-05-05 11:21 | 52.43826 | 21.59504 | 13028 ft | 280 kts | 208° |
| 2026-05-05 11:21 | 52.42074 | 21.58133 | 12631 ft | 278 kts | 208° |
| 2026-05-05 11:22 | 52.40330 | 21.56769 | 12257 ft | 277 kts | 207° |
| 2026-05-05 11:22 | 52.38596 | 21.55414 | 11886 ft | 276 kts | 207° |
| 2026-05-05 11:22 | 52.36865 | 21.54066 | 11508 ft | 275 kts | 207° |
| 2026-05-05 11:22 | 52.35167 | 21.52742 | 11144 ft | 274 kts | 207° |
| 2026-05-05 11:23 | 52.33450 | 21.51404 | 10774 ft | 273 kts | 207° |
| 2026-05-05 11:23 | 52.31737 | 21.50073 | 10409 ft | 272 kts | 207° |
| 2026-05-05 11:23 | 52.30032 | 21.48750 | 10065 ft | 271 kts | 207° |
| 2026-05-05 11:23 | 52.28340 | 21.47438 | 9858 ft | 269 kts | 207° |
| 2026-05-05 11:24 | 52.26642 | 21.46121 | 9859 ft | 271 kts | 207° |
| 2026-05-05 11:24 | 52.24938 | 21.44799 | 9859 ft | 271 kts | 207° |
| 2026-05-05 11:24 | 52.23237 | 21.43478 | 9861 ft | 271 kts | 207° |
| 2026-05-05 11:24 | 52.21533 | 21.42161 | 9860 ft | 271 kts | 207° |
| 2026-05-05 11:25 | 52.19826 | 21.40848 | 9858 ft | 271 kts | 207° |
| 2026-05-05 11:25 | 52.18119 | 21.39538 | 9789 ft | 271 kts | 207° |
| 2026-05-05 11:25 | 52.16416 | 21.38225 | 9663 ft | 270 kts | 207° |
| 2026-05-05 11:25 | 52.14718 | 21.36915 | 9531 ft | 270 kts | 207° |
| 2026-05-05 11:26 | 52.13025 | 21.35610 | 9400 ft | 269 kts | 207° |
| 2026-05-05 11:26 | 52.11341 | 21.34313 | 9113 ft | 267 kts | 207° |
| 2026-05-05 11:26 | 52.09681 | 21.33037 | 8919 ft | 259 kts | 207° |
| 2026-05-05 11:26 | 52.08103 | 21.31827 | 8781 ft | 242 kts | 207° |
| 2026-05-05 11:27 | 52.06616 | 21.30689 | 8478 ft | 233 kts | 207° |
| 2026-05-05 11:27 | 52.05160 | 21.29574 | 8067 ft | 230 kts | 207° |
| 2026-05-05 11:27 | 52.03713 | 21.28466 | 7647 ft | 229 kts | 206° |
| 2026-05-05 11:27 | 52.02278 | 21.27367 | 7213 ft | 227 kts | 206° |
| 2026-05-05 11:28 | 52.00868 | 21.26284 | 6762 ft | 227 kts | 206° |
| 2026-05-05 11:28 | 51.99455 | 21.25161 | 6266 ft | 225 kts | 212° |
| 2026-05-05 11:28 | 51.98252 | 21.23547 | 5698 ft | 225 kts | 228° |
| 2026-05-05 11:28 | 51.97413 | 21.21410 | 5129 ft | 226 kts | 246° |
| 2026-05-05 11:29 | 51.97038 | 21.18927 | 4560 ft | 229 kts | 265° |
| 2026-05-05 11:29 | 51.97189 | 21.16373 | 4110 ft | 227 kts | 284° |
| 2026-05-05 11:29 | 51.97885 | 21.14057 | 4273 ft | 241 kts | 302° |
| 2026-05-05 11:29 | 51.99060 | 21.12059 | 3909 ft | 248 kts | 321° |
| 2026-05-05 11:30 | 52.00549 | 21.10654 | 3598 ft | 247 kts | 329° |
| 2026-05-05 11:30 | 52.02054 | 21.09354 | 3271 ft | 240 kts | 329° |
| 2026-05-05 11:30 | 52.03496 | 21.08104 | 2961 ft | 230 kts | 329° |
| 2026-05-05 11:30 | 52.04848 | 21.06932 | 2699 ft | 210 kts | 329° |
| 2026-05-05 11:31 | 52.06090 | 21.05853 | 2416 ft | 196 kts | 330° |
| 2026-05-05 11:31 | 52.07254 | 21.04841 | 2171 ft | 183 kts | 328° |
| 2026-05-05 11:31 | 52.08317 | 21.03917 | 1980 ft | 165 kts | 329° |
| 2026-05-05 11:31 | 52.09299 | 21.03062 | 1723 ft | 156 kts | 329° |
| 2026-05-05 11:32 | 52.10256 | 21.02226 | 1524 ft | 156 kts | 330° |
| 2026-05-05 11:32 | 52.11213 | 21.01392 | 1331 ft | 157 kts | 329° |
| 2026-05-05 11:32 | 52.12170 | 21.00557 | 1121 ft | 155 kts | 329° |
| 2026-05-05 11:32 | 52.13119 | 20.99727 | 930 ft | 155 kts | 329° |
| 2026-05-05 11:33 | 52.14059 | 20.98897 | 696 ft | 152 kts | 331° |
| 2026-05-05 11:33 | 52.14995 | 20.98095 | 504 ft | 152 kts | 329° |
| 2026-05-05 11:33 | 52.15922 | 20.97277 | 366 ft | 150 kts | 328° |
| 2026-05-05 11:33 | 52.16733 | 20.96560 | 337 ft | 103 kts | 331° |
| 2026-05-05 11:34 | 52.17061 | 20.96286 | 335 ft | 34 kts | 338° |
| 2026-05-05 11:34 | 52.17202 | 20.96245 | 334 ft | 13 kts | 355° |
| 2026-05-05 11:34 | 52.17278 | 20.96241 | 334 ft | 10 kts | 359° |
| 2026-05-05 11:34 | 52.17330 | 20.96244 | 334 ft | 7 kts | 2° |
| 2026-05-05 11:35 | 52.17359 | 20.96248 | 337 ft | 2 kts | 9° |
| 2026-05-05 11:35 | 52.17376 | 20.96257 | 339 ft | 3 kts | 22° |
| 2026-05-05 11:35 | 52.17394 | 20.96281 | 335 ft | 5 kts | 47° |
| 2026-05-05 11:35 | 52.17408 | 20.96314 | 337 ft | 4 kts | 56° |
| 2026-05-05 11:36 | 52.17432 | 20.96387 | 335 ft | 11 kts | 65° |
| 2026-05-05 11:36 | 52.17467 | 20.96515 | 338 ft | 13 kts | 85° |
| 2026-05-05 11:36 | 52.17421 | 20.96611 | 335 ft | 8 kts | 150° |
| 2026-05-05 11:36 | 52.17372 | 20.96654 | 339 ft | 8 kts | 152° |
| 2026-05-05 11:37 | 52.17331 | 20.96690 | 337 ft | 6 kts | 152° |
| 2026-05-05 11:37 | 52.17308 | 20.96709 | 337 ft | 7 kts | 152° |
| 2026-05-05 11:37 | 52.17266 | 20.96745 | 336 ft | 7 kts | 152° |
| 2026-05-05 11:37 | 52.17217 | 20.96788 | 337 ft | 9 kts | 152° |
| 2026-05-05 11:38 | 52.17176 | 20.96824 | 333 ft | 2 kts | 150° |
| 2026-05-05 11:38 | 52.17159 | 20.96840 | 336 ft | 6 kts | 150° |
| 2026-05-05 11:38 | 52.17108 | 20.96885 | 338 ft | 10 kts | 152° |
| 2026-05-05 11:38 | 52.17087 | 20.96904 | 335 ft | 0 kts | 151° |
| 2026-05-05 11:39 | 52.17072 | 20.96946 | 337 ft | 7 kts | 91° |
| 2026-05-05 11:39 | 52.17090 | 20.97037 | 337 ft | 7 kts | 75° |